Airfield :
LOGIN :

Register | Disclaimer

   EN    FR    IT 

 










Legend :    VFR   Marginal VFR   IFR   Intensive IFR   Very Intensive IFR
Visi :
Ceiling :
>= 8 km
>= 3000ft
5 to 8 km
1000 to 3000 ft
1500m to 5 km
500 to 1000 ft
800 to 1500m
200 to 500 ft
< 800m
< 200 ft
Symbols :   Thunderstorms  Fog  Heavy snow  Heavy precipitations  Wind > 20 kt
SIGMETs :     Misc.  Thunderstorms  Icing  Turbulence  Mountain Waves  Volcanic Ashes






- Airport Elevation : 461 ft
- IATA code : WIE


ETOU - Wiesbaden Army

CURRENT METAR :
  • 121401Z AUTO 23007KT 9999 SCT021 OVC030 05/03 A2957 RMK AO2 RAE01 SLP022

EXPIRED METARs :
  • 121337Z AUTO 24013KT 9999 -RA SCT023 OVC033 05/03 A2958 RMK AO2 RAB36 SLP025
  • 121336Z AUTO 24013KT 9999 SCT023 OVC033 05/03 A2958 RMK AO2 SLP025
  • 121316Z AUTO 26005KT 9999 SCT024 BKN029 BKN035 05/04 A2958 RMK AO2 SLPNO
  • 121256Z AUTO 28004KT 9999 SCT029 05/04 A2959 RMK AO2 SLP029 T00480042
  • 121206Z AUTO 29006KT 9999 FEW009 FEW024 BKN030 05/05 A2962 RMK AO2 SLP039
  • 121156Z AUTO 27006KT 9999 FEW009 FEW013 BKN028 BKN036 04/04 A2962 RMK AO2 BKN028 V OVC SLP039 60000 70031 T00440044 10045 20021 57015
  • 121147Z AUTO 27006KT 9999 SCT012 OVC028 04/04 A2963 RMK AO2 CIG 011V028 SLP042
  • 121117Z AUTO 26004KT 9999 BKN013 OVC019 04/04 A2964 RMK AO2 BKN V OVC SLP046
  • 121107Z AUTO 24004KT 9999 OVC014 04/04 A2964 RMK AO2 OVC V BKN SLP046

TAF TAF ETOU
Valid from the 12 at 12:00 until the 13 at 18:00 UTC


121201Z 1212/1318 22012KT 9999 OVC025 QNH2960INS
BECMG 1215/1216 VRB06KT 9999 BKN020 QNH2956INS
BECMG 1302/1303 16012KT 8000 -SN OVC010 QNH2965INS
BECMG 1305/1306 15009KT 8000 -SHRA OVC010 QNH2968INS
BECMG 1313/1314 26010G15KT 9999 NSW OVC015 QNH2974INS TX05/1214Z TN00/1303Z



MET'MAP, your aeronautical weather chart ! - Copyright ORBIFLY December 2007 - Disclaimer

ORBIFLY MET'MAP TEAM :

Programming & Development : Alexandra Zaïnal
Concept & original design : Baudouin d'Aumeries
Assistance for programming : Marc-Olivier Méhu
Technical & hardware support : Manuel Goepfert

Contact : metmap@orbifly.com




SOURCES & CREDITS :

   NOAA